Main page
METAR-TAF:

METAR-TAF

Airports :

Mytilene International Airport

Mytilene-Lesbos, Greece

latitude: 39-04N, longitude: 026-36E, elevation: 3 m

Current weather observation

The report was made 15 minutes ago, at 15:50 UTC
Wind 3 kt from variable directions
Temperature 16°C
Humidity 72%
Pressure 1010 hPa
Visibility 10 km or more
Broken clouds at a height of 2500 ft

METAR: LGMT 041550Z VRB03KT 9999 BKN025 16/11 Q1010

Time: 19:05 (16:05 UTC)

Forecast

The report was made 2 hours and 5 minutes ago, at 14:00 UTC
Forecast valid from 04 at 15 UTC to 04 at 24 UTC
Wind 5 kt from variable directions
Visibility 10 km or more
Scattered clouds at a height of 2500 ft
Becoming
from 04 at 15 UTC to 04 at 18 UTC
Wind 12 kt from the North
Probability 40% :
Temporary
from 04 at 15 UTC to 04 at 24 UTC
Visibility: 5000 m
Scattered clouds at a height of 1200 ft
Broken clouds at a height of 2000 ft
rain

TAF: LGMT 041400Z 0415/0424 VRB05KT 9999 SCT025 BECMG 0415/0418 36012KT PROB40 TEMPO 0415/0424 5000 RA SCT012 BKN020

Weather observations and forecasts of more than 4000 airports (METAR and TAF reports).

The available stations are represented by yellow and red dots on the map.

Hover mouse over dot to see the name of the station.

Then click to see weather observations and forecasts.

To change the map : click on the green buttons with a black cross to zoom in, on the green button with a dash to zoom out, or on the green arrows for adjacent maps.


METAR-TAF: